Time;durP1;ratioP1;P1;durP2;ratioP2;P2;SDS_P1;SDS_P2;PMS_P1;PMS_P2;Temp;Humidity;BMP_temperature;BMP_pressure;BME280_temperature;BME280_humidity;BME280_pressure;Samples;Min_cycle;Max_cycle;Signal;HPM_P1;HPM_P2
2023/12/08 00:01:00;;;;;;;0.70;0.70;;;;;;;17.08;60.66;98994.34;2083564;28;19921;-68
2023/12/08 00:02:02;;;;;;;;;;;;;;;17.02;60.78;98997.72;2083588;28;20087;-67
2023/12/08 00:03:03;;;;;;;1.42;1.23;;;;;;;17.06;60.74;99001.72;2082908;28;19957;-67
2023/12/08 00:04:04;;;;;;;;;;;;;;;16.96;60.98;98997.44;2084423;28;20057;-67
2023/12/08 00:05:09;;;;;;;1.85;1.20;;;;;;;17.02;60.77;98993.22;2083573;28;19979;-68
2023/12/08 00:06:11;;;;;;;1.08;0.70;;;;;;;17.03;60.73;98994.88;2081762;28;20079;-67
2023/12/08 00:07:13;;;;;;;1.02;0.80;;;;;;;17.07;60.55;98992.66;2082646;28;20080;-67
2023/12/08 00:08:15;;;;;;;1.58;1.00;;;;;;;17.09;60.51;98991.47;2081710;28;20044;-67
2023/12/08 00:09:16;;;;;;;1.52;1.38;;;;;;;17.10;60.51;98984.25;2082177;28;20071;-67
2023/12/08 00:10:17;;;;;;;;;;;;;;;17.00;60.69;98987.22;2086109;28;20095;-66
2023/12/08 00:11:18;;;;;;;1.30;1.20;;;;;;;17.01;60.77;98980.84;2083005;28;19928;-67
2023/12/08 00:12:19;;;;;;;;;;;;;;;16.91;60.89;98978.44;2082090;28;20060;-67
2023/12/08 00:13:22;;;;;;;1.27;1.03;;;;;;;16.95;60.97;98987.75;2082127;28;19959;-67
2023/12/08 00:14:22;;;;;;;0.70;0.70;;;;;;;16.98;60.67;98987.38;2083616;28;20519;-68
2023/12/08 00:15:24;;;;;;;;;;;;;;;16.88;61.01;98986.84;2083795;28;20049;-66
2023/12/08 00:16:25;;;;;;;;;;;;;;;16.80;61.19;98986.06;2081415;28;19966;-67
2023/12/08 00:17:27;;;;;;;1.35;1.25;;;;;;;16.88;61.04;98994.03;2083389;28;19995;-68
2023/12/08 00:18:28;;;;;;;1.45;1.27;;;;;;;16.93;60.78;98991.63;2081939;28;20048;-68
2023/12/08 00:19:30;;;;;;;;;;;;;;;16.86;60.88;98996.09;2083588;28;20792;-66
2023/12/08 00:20:32;;;;;;;1.25;1.00;;;;;;;16.91;60.83;98991.84;2083707;28;20269;-67
2023/12/08 00:21:35;;;;;;;2.45;1.35;;;;;;;16.92;60.72;98993.50;2083756;28;20500;-67
2023/12/08 00:22:36;;;;;;;1.33;1.00;;;;;;;16.96;60.58;98991.25;2079882;28;20072;-68
2023/12/08 00:23:37;;;;;;;;;;;;;;;16.86;60.84;98996.09;2085720;28;20579;-65
2023/12/08 00:24:38;;;;;;;2.92;1.20;;;;;;;16.87;60.85;98992.38;2082697;28;19979;-66
2023/12/08 00:25:39;;;;;;;;;;;;;;;16.80;61.04;98994.09;2084687;28;20535;-66
2023/12/08 00:26:41;;;;;;;2.07;1.37;;;;;;;16.85;60.89;98995.22;2082719;28;19916;-67
2023/12/08 00:27:42;;;;;;;3.60;1.35;;;;;;;16.87;60.73;99000.41;2085593;28;20305;-66
2023/12/08 00:28:44;;;;;;;1.15;1.05;;;;;;;16.88;60.84;98994.88;2081241;28;20049;-67
2023/12/08 00:29:45;;;;;;;1.52;1.33;;;;;;;16.89;60.57;98999.22;2082348;28;20050;-67
2023/12/08 00:30:47;;;;;;;;;;;;;;;16.78;60.81;99001.53;2082147;28;20065;-67
2023/12/08 00:31:48;;;;;;;0.90;0.90;;;;;;;16.82;60.78;98994.78;2084588;28;19936;-66
2023/12/08 00:32:48;;;;;;;;;;;;;;;16.73;61.04;99000.19;2085463;28;20049;-67
2023/12/08 00:33:51;;;;;;;1.53;1.10;;;;;;;16.77;60.95;99003.38;2082112;28;19917;-66
2023/12/08 00:34:53;;;;;;;1.45;1.25;;;;;;;16.80;60.73;99003.00;2081895;28;20075;-68
2023/12/08 00:35:57;;;;;;;0.73;0.73;;;;;;;16.83;60.66;98997.28;2082906;28;20049;-68
2023/12/08 00:36:58;;;;;;;2.00;1.10;;;;;;;16.85;60.62;98999.75;2079916;28;20094;-67
2023/12/08 00:38:00;;;;;;;;;;;;;;;16.71;61.01;99010.22;2082404;28;20053;-68
2023/12/08 00:39:00;;;;;;;;;;;;;;;16.63;61.18;99009.47;2084484;28;19921;-67
2023/12/08 00:40:03;;;;;;;1.52;1.35;;;;;;;16.69;61.04;99011.44;2084649;28;20271;-67
2023/12/08 00:41:04;;;;;;;1.58;1.20;;;;;;;16.74;60.87;99009.91;2085336;28;20060;-67
2023/12/08 00:42:06;;;;;;;;;;;;;;;16.62;61.15;99011.31;2085293;28;20069;-67
2023/12/08 00:43:07;;;;;;;1.35;1.20;;;;;;;16.67;61.06;99000.09;2085553;28;19928;-67
2023/12/08 00:44:09;;;;;;;;;;;;;;;16.61;61.12;99012.34;2086252;28;20142;-67
2023/12/08 00:45:10;;;;;;;1.00;1.00;;;;;;;16.65;61.04;99013.66;2084403;28;19921;-67
2023/12/08 00:46:12;;;;;;;;;;;;;;;16.57;61.15;99010.22;2087024;28;20095;-67
2023/12/08 00:47:12;;;;;;;3.22;1.30;;;;;;;16.61;61.22;99004.31;2084869;28;20845;-66
2023/12/08 00:48:13;;;;;;;;;;;;;;;16.54;61.15;99009.56;2083298;28;20055;-66
2023/12/08 00:49:15;;;;;;;2.37;2.00;;;;;;;16.61;61.06;99004.31;2082017;28;19917;-68
2023/12/08 00:50:16;;;;;;;1.70;1.13;;;;;;;16.64;60.95;99001.28;2085739;28;20045;-68
2023/12/08 00:51:20;;;;;;;1.55;1.20;;;;;;;16.70;60.76;99002.41;2084463;28;20094;-68
2023/12/08 00:52:21;;;;;;;1.15;1.02;;;;;;;16.68;60.68;98999.88;2081604;28;20106;-66
2023/12/08 00:53:22;;;;;;;;;;;;;;;16.57;61.05;98997.66;2085871;28;20061;-68
2023/12/08 00:54:23;;;;;;;1.38;1.10;;;;;;;16.62;60.95;98994.44;2084089;28;19981;-67
2023/12/08 00:55:25;;;;;;;;;;;;;;;16.50;61.05;98988.69;2084337;28;20056;-67
2023/12/08 00:56:26;;;;;;;1.08;0.82;;;;;;;16.56;61.16;98987.97;2086270;28;19928;-68
2023/12/08 00:57:27;;;;;;;;;;;;;;;16.50;61.20;98986.00;2083294;28;20048;-66
2023/12/08 00:58:28;;;;;;;1.63;1.05;;;;;;;16.57;60.92;98984.25;2085543;28;19921;-67
2023/12/08 00:59:29;;;;;;;;;;;;;;;16.45;61.13;98983.03;2087136;28;20121;-67
2023/12/08 01:00:31;;;;;;;1.98;1.50;;;;;;;16.52;61.21;98989.34;2084476;28;19924;-67
2023/12/08 01:01:32;;;;;;;1.33;1.10;;;;;;;16.57;60.91;98986.09;2084662;28;20053;-67
2023/12/08 01:02:34;;;;;;;;;;;;;;;16.46;61.19;98990.06;2087612;28;20114;-67
2023/12/08 01:03:35;;;;;;;1.42;1.20;;;;;;;16.49;61.14;98992.38;2085513;28;19969;-67
2023/12/08 01:04:35;;;;;;;;;;;;;;;16.43;61.19;98993.09;2086062;28;20304;-67
2023/12/08 01:05:37;;;;;;;1.57;1.10;;;;;;;16.47;61.10;98989.88;2084886;28;19928;-68
2023/12/08 01:06:40;;;;;;;1.52;1.23;;;;;;;16.53;60.95;98993.69;2085313;28;20099;-68
2023/12/08 01:07:42;;;;;;;2.22;1.17;;;;;;;16.53;60.83;98999.03;2082736;28;20045;-66
2023/12/08 01:08:43;;;;;;;1.10;1.00;;;;;;;16.54;60.76;98992.66;2083465;28;20407;-66
2023/12/08 01:09:44;;;;;;;;;;;;;;;16.43;60.93;98995.78;2087098;28;20063;-67
2023/12/08 01:10:45;;;;;;;;;;;;;;;16.33;61.18;98989.84;2085899;28;19929;-67
2023/12/08 01:11:47;;;;;;;1.25;0.88;;;;;;;16.37;61.28;98988.47;2085477;28;19921;-68
2023/12/08 01:12:48;;;;;;;0.85;0.85;;;;;;;16.42;61.09;98988.75;2085645;28;20584;-68
2023/12/08 01:13:49;;;;;;;;;;;;;;;16.31;61.25;98988.16;2087001;28;20045;-67
2023/12/08 01:14:50;;;;;;;2.13;1.30;;;;;;;16.40;61.20;98988.09;2082930;28;20020;-68
2023/12/08 01:15:52;;;;;;;;;;;;;;;16.30;61.35;98978.50;2084728;28;20065;-67
2023/12/08 01:16:53;;;;;;;;;;;;;;;16.22;61.52;98980.41;2082760;28;19929;-66
2023/12/08 01:17:55;;;;;;;0.85;0.85;;;;;;;16.27;61.45;98984.22;2085044;28;19981;-67
2023/12/08 01:18:56;;;;;;;1.95;1.20;;;;;;;16.33;61.29;98973.78;2086065;28;20102;-67
2023/12/08 01:19:57;;;;;;;;;;;;;;;16.23;61.41;98974.84;2086263;28;20100;-67
2023/12/08 01:20:58;;;;;;;;;;;;;;;16.17;61.64;98978.25;2085218;28;19921;-67
2023/12/08 01:22:01;;;;;;;2.42;1.35;;;;;;;16.21;61.48;98971.50;2085155;28;19921;-67
2023/12/08 01:23:02;;;;;;;1.85;1.33;;;;;;;16.25;61.22;98975.50;2084849;28;20401;-67
2023/12/08 01:24:04;;;;;;;;;;;;;;;16.15;61.62;98977.59;2084778;28;20128;-67
2023/12/08 01:25:06;;;;;;;1.38;1.00;;;;;;;16.20;61.53;98975.22;2085648;28;19920;-67
2023/12/08 01:26:09;;;;;;;1.35;1.02;;;;;;;16.25;61.31;98975.50;2084138;28;20688;-66
2023/12/08 01:27:10;;;;;;;1.25;1.15;;;;;;;16.29;61.22;98984.84;2085499;28;20092;-67
2023/12/08 01:28:12;;;;;;;;;;;;;;;16.13;61.54;98973.44;2086278;28;20064;-66
2023/12/08 01:29:13;;;;;;;1.23;1.13;;;;;;;16.19;61.54;98978.09;2084205;28;19964;-66
2023/12/08 01:30:15;;;;;;;;;;;;;;;16.12;61.49;98966.41;2086138;28;20063;-67
2023/12/08 01:31:16;;;;;;;1.33;1.23;;;;;;;16.19;61.46;98970.06;2082496;28;19921;-67
2023/12/08 01:32:17;;;;;;;;;;;;;;;16.09;61.67;98972.97;2083396;28;20143;-66
2023/12/08 01:33:18;;;;;;;1.30;1.20;;;;;;;16.15;61.47;98972.25;2082825;28;20084;-67
2023/12/08 01:34:20;;;;;;;;;;;;;;;16.04;61.68;98972.66;2085137;28;20473;-66
2023/12/08 01:35:20;;;;;;;;;;;;;;;15.96;61.99;98968.19;2084275;28;19920;-67
2023/12/08 01:36:22;;;;;;;1.15;1.00;;;;;;;16.04;61.72;98975.34;2085112;28;20433;-67
2023/12/08 01:37:25;;;;;;;1.75;1.45;;;;;;;16.14;61.44;98975.94;2085713;28;20045;-66
2023/12/08 01:38:28;;;;;;;0.90;0.90;;;;;;;16.19;61.28;98972.72;2081621;28;20240;-67
2023/12/08 01:39:29;;;;;;;1.60;1.25;;;;;;;16.19;61.23;98973.56;2082532;28;20061;-66
2023/12/08 01:40:31;;;;;;;;;;;;;;;16.06;61.57;98974.16;2088154;28;20048;-67
2023/12/08 01:41:31;;;;;;;;;;;;;;;15.98;61.84;98976.06;2084203;28;19924;-67
2023/12/08 01:42:33;;;;;;;1.30;0.77;;;;;;;16.04;61.68;98969.97;2085106;28;20402;-67
2023/12/08 01:43:35;;;;;;;1.42;1.10;;;;;;;16.09;61.41;98973.78;2085131;28;20056;-67
2023/12/08 01:44:37;;;;;;;0.95;0.73;;;;;;;16.13;61.38;98968.94;2084216;28;20515;-67
2023/12/08 01:45:39;;;;;;;1.52;1.42;;;;;;;16.14;61.24;98970.59;2086183;28;20056;-67
2023/12/08 01:46:41;;;;;;;0.85;0.77;;;;;;;16.17;61.11;98975.56;2080541;28;20052;-67
2023/12/08 01:47:43;;;;;;;1.40;1.00;;;;;;;16.15;61.10;98971.41;2085252;28;20140;-67
2023/12/08 01:48:47;;;;;;;1.05;1.05;;;;;;;16.18;60.97;98965.69;2083103;28;20052;-68
2023/12/08 01:49:49;;;;;;;1.38;1.27;;;;;;;16.12;61.17;98967.25;2084723;28;20057;-68
2023/12/08 01:50:51;;;;;;;0.80;0.80;;;;;;;16.12;61.17;98969.94;2083250;28;20067;-68
2023/12/08 01:51:52;;;;;;;1.20;1.10;;;;;;;16.10;61.19;98958.56;2082301;28;20045;-68
2023/12/08 01:52:56;;;;;;;1.08;0.90;;;;;;;16.12;61.17;98961.06;2084523;28;20099;-67
2023/12/08 01:53:57;;;;;;;1.83;1.15;;;;;;;16.09;61.26;98955.06;2084600;28;20068;-67
2023/12/08 01:55:00;;;;;;;;;;;;;;;15.99;61.43;98953.63;2084904;28;20099;-68
2023/12/08 01:56:01;;;;;;;1.20;1.10;;;;;;;16.00;61.29;98955.31;2085015;28;19974;-67
2023/12/08 01:57:04;;;;;;;1.00;1.00;;;;;;;16.04;61.38;98954.75;2085946;28;20064;-67
2023/12/08 01:58:05;;;;;;;1.83;0.85;;;;;;;16.06;61.19;98951.91;2083263;28;20072;-65
2023/12/08 01:59:07;;;;;;;;;;;;;;;15.91;61.55;98954.53;2086033;28;20048;-67
2023/12/08 02:00:10;;;;;;;1.45;1.23;;;;;;;15.96;61.58;98954.00;2080919;28;19925;-66
2023/12/08 02:01:12;;;;;;;1.35;1.20;;;;;;;16.00;61.27;98947.28;2083919;28;20439;-67
2023/12/08 02:02:13;;;;;;;1.65;1.35;;;;;;;16.03;61.22;98949.59;2083461;28;20555;-66
2023/12/08 02:03:16;;;;;;;1.58;1.33;;;;;;;16.02;61.11;98948.78;2088394;28;20048;-67
2023/12/08 02:04:17;;;;;;;1.25;1.08;;;;;;;16.02;61.34;98946.09;2082746;28;20082;-67
2023/12/08 02:05:21;;;;;;;;;;;;;;;15.88;61.58;98948.69;2085280;28;20094;-67
2023/12/08 02:06:22;;;;;;;2.50;1.17;;;;;;;15.89;61.55;98937.84;2083078;28;19925;-67
2023/12/08 02:07:23;;;;;;;;;;;;;;;15.80;61.74;98942.41;2085011;28;20053;-66
2023/12/08 02:08:26;;;;;;;1.27;0.77;;;;;;;15.89;61.63;98939.69;2082728;28;19970;-68
2023/12/08 02:09:28;;;;;;;1.77;1.30;;;;;;;15.91;61.48;98934.97;2083761;28;20061;-68
2023/12/08 02:10:29;;;;;;;1.05;0.95;;;;;;;15.92;61.45;98933.97;2083239;28;20048;-67
2023/12/08 02:11:31;;;;;;;;;;;;;;;15.81;61.66;98933.38;2086976;28;20053;-67
2023/12/08 02:12:32;;;;;;;;;;;;;;;15.74;61.97;98931.56;2081020;28;19925;-67
2023/12/08 02:13:34;;;;;;;0.90;0.82;;;;;;;15.80;61.63;98925.53;2083203;28;19974;-67
2023/12/08 02:14:37;;;;;;;1.90;1.40;;;;;;;15.85;61.50;98925.81;2079890;28;20053;-66
2023/12/08 02:15:40;;;;;;;0.68;0.68;;;;;;;15.85;61.39;98926.66;2081561;28;20086;-67
2023/12/08 02:16:49;;;;;;;1.73;1.05;;;;;;;15.87;61.37;98926.47;2083362;28;20049;-67
2023/12/08 02:17:51;;;;;;;0.95;0.77;;;;;;;15.88;61.27;98928.16;2082684;28;20512;-67
2023/12/08 02:18:54;;;;;;;1.15;1.05;;;;;;;15.88;61.32;98927.31;2083792;28;20049;-66
2023/12/08 02:19:57;;;;;;;1.17;0.95;;;;;;;15.87;61.45;98921.13;2085056;28;20037;-67
2023/12/08 02:20:58;;;;;;;1.63;1.08;;;;;;;15.88;61.29;98927.31;2083043;28;20075;-68
2023/12/08 02:22:00;;;;;;;1.02;0.93;;;;;;;15.83;61.34;98919.84;2083816;28;20045;-67
2023/12/08 02:23:05;;;;;;;1.17;1.08;;;;;;;15.86;61.58;98916.78;2082612;28;20041;-67
2023/12/08 02:24:08;;;;;;;1.80;1.52;;;;;;;15.82;61.43;98921.69;2083171;28;20562;-67
2023/12/08 02:25:09;;;;;;;1.30;1.20;;;;;;;15.81;61.38;98911.97;2080681;28;20045;-67
2023/12/08 02:26:11;;;;;;;;;;;;;;;15.70;61.66;98915.06;2083058;28;20084;-66
2023/12/08 02:27:12;;;;;;;1.33;1.08;;;;;;;15.75;61.60;98917.22;2083776;28;19925;-67
2023/12/08 02:28:14;;;;;;;;;;;;;;;15.66;61.79;98913.75;2085659;28;20087;-66
2023/12/08 02:29:15;;;;;;;1.50;1.05;;;;;;;15.71;61.76;98916.75;2082193;28;20400;-68
2023/12/08 02:30:17;;;;;;;2.25;1.20;;;;;;;15.74;61.72;98910.19;2084775;28;20526;-67
2023/12/08 02:31:24;;;;;;;1.33;0.88;;;;;;;15.74;61.72;98908.38;2083679;28;20045;-67
2023/12/08 02:32:33;;;;;;;2.72;1.38;;;;;;;15.76;61.39;98903.66;2081736;28;20099;-67
2023/12/08 02:33:38;;;;;;;1.85;1.42;;;;;;;15.77;61.30;98899.16;2080193;28;21934;-67
2023/12/08 02:34:41;;;;;;;2.20;0.95;;;;;;;15.77;61.45;98894.63;2081714;28;20098;-68
2023/12/08 02:35:45;;;;;;;1.33;1.00;;;;;;;15.75;61.59;98890.47;2083020;28;20056;-68
2023/12/08 02:36:49;;;;;;;1.08;0.88;;;;;;;15.76;61.41;98892.94;2085094;28;20045;-67
2023/12/08 02:37:51;;;;;;;1.75;1.65;;;;;;;15.73;61.59;98887.97;2087207;28;20580;-67
2023/12/08 02:38:54;;;;;;;1.52;1.25;;;;;;;15.72;61.56;98891.66;2084399;28;20049;-66
2023/12/08 02:39:58;;;;;;;1.35;1.25;;;;;;;15.70;61.48;98888.31;2085644;28;20068;-67
2023/12/08 02:41:00;;;;;;;1.52;1.08;;;;;;;15.69;61.61;98889.34;2085435;28;20123;-67
2023/12/08 02:42:02;;;;;;;1.35;0.95;;;;;;;15.70;61.30;98885.66;2084116;28;20048;-67
2023/12/08 02:43:03;;;;;;;1.90;1.50;;;;;;;15.66;61.43;98881.66;2085644;28;20454;-67
2023/12/08 02:44:05;;;;;;;;;;;;;;;15.53;61.90;98886.75;2086034;28;20049;-67
2023/12/08 02:45:07;;;;;;;1.83;1.33;;;;;;;15.59;61.81;98884.19;2084325;28;19929;-66
2023/12/08 02:46:09;;;;;;;0.95;0.75;;;;;;;15.62;61.69;98885.66;2085674;28;20053;-67
2023/12/08 02:47:10;;;;;;;0.95;0.88;;;;;;;15.65;61.65;98886.13;2083582;28;20049;-66
2023/12/08 02:48:12;;;;;;;0.98;0.80;;;;;;;15.66;61.34;98881.66;2082410;28;20053;-67
2023/12/08 02:49:13;;;;;;;1.73;0.90;;;;;;;15.64;61.57;98883.66;2088375;28;20041;-66
2023/12/08 02:50:15;;;;;;;;;;;;;;;15.54;61.88;98883.06;2082641;28;20092;-66
2023/12/08 02:51:16;;;;;;;0.88;0.88;;;;;;;15.55;61.83;98874.88;2081815;28;19971;-65
2023/12/08 02:52:17;;;;;;;;;;;;;;;15.45;61.92;98874.25;2085310;28;20094;-67
2023/12/08 02:53:19;;;;;;;2.70;1.67;;;;;;;15.50;62.10;98879.09;2084588;28;20383;-67
2023/12/08 02:54:20;;;;;;;1.88;1.00;;;;;;;15.53;61.69;98874.22;2083503;28;20288;-68
2023/12/08 02:55:23;;;;;;;;;;;;;;;15.45;61.85;98871.59;2086745;28;20056;-67
2023/12/08 02:56:24;;;;;;;1.55;1.00;;;;;;;15.48;61.92;98868.56;2086444;28;19920;-67
2023/12/08 02:57:25;;;;;;;;;;;;;;;15.39;62.05;98870.47;2085643;28;20056;-67
2023/12/08 02:58:26;;;;;;;2.65;1.63;;;;;;;15.46;62.01;98869.75;2085373;28;20011;-65
2023/12/08 02:59:28;;;;;;;;;;;;;;;15.36;62.19;98870.81;2083982;28;20052;-65
2023/12/08 03:00:29;;;;;;;1.20;0.88;;;;;;;15.41;62.19;98863.09;2085462;28;19973;-66
2023/12/08 03:01:31;;;;;;;;;;;;;;;15.33;62.25;98860.47;2084227;28;20056;-67
2023/12/08 03:02:32;;;;;;;0.95;0.88;;;;;;;15.41;62.15;98857.75;2083722;28;19925;-66
2023/12/08 03:03:33;;;;;;;;;;;;;;;15.33;62.32;98848.97;2085373;28;20106;-66
2023/12/08 03:04:34;;;;;;;1.65;1.00;;;;;;;15.40;62.01;98856.06;2084132;28;19928;-66
2023/12/08 03:05:36;;;;;;;;;;;;;;;15.33;62.27;98856.97;2083912;28;20495;-67
2023/12/08 03:06:37;;;;;;;1.50;1.40;;;;;;;15.35;62.08;98858.47;2085024;28;19933;-66
2023/12/08 03:07:38;;;;;;;;;;;;;;;15.32;62.23;98860.63;2083825;28;20126;-66
2023/12/08 03:08:40;;;;;;;1.70;1.27;;;;;;;15.35;62.17;98854.94;2081202;28;19921;-67
2023/12/08 03:09:40;;;;;;;1.08;0.98;;;;;;;15.40;62.04;98850.72;2082952;28;20048;-65
2023/12/08 03:10:44;;;;;;;;;;;;;;;15.28;62.19;98857.50;2083932;28;20041;-66
2023/12/08 03:11:45;;;;;;;1.70;1.10;;;;;;;15.32;62.11;98856.16;2085159;28;19993;-66
2023/12/08 03:12:46;;;;;;;;;;;;;;;15.23;62.39;98854.53;2085395;28;20048;-65
2023/12/08 03:13:47;;;;;;;0.95;0.90;;;;;;;15.30;62.40;98852.00;2085324;28;20338;-66
2023/12/08 03:14:49;;;;;;;;;;;;;;;15.26;62.26;98850.66;2082190;28;20056;-67
2023/12/08 03:15:49;;;;;;;;;;;;;;;15.24;62.27;98845.50;2082398;28;19970;-67
2023/12/08 03:16:51;;;;;;;0.80;0.80;;;;;;;15.34;62.07;98851.44;2085945;28;20358;-66
2023/12/08 03:17:52;;;;;;;1.85;1.55;;;;;;;15.46;61.81;98843.00;2086382;28;20075;-67
2023/12/08 03:18:54;;;;;;;;;;;;;;;15.45;61.66;98841.34;2083432;28;20046;-67
2023/12/08 03:19:55;;;;;;;;;;;;;;;15.42;61.64;98840.69;2085428;28;19929;-67
2023/12/08 03:20:56;;;;;;;1.23;0.93;;;;;;;15.54;61.28;98848.31;2083576;28;20584;-67
2023/12/08 03:21:57;;;;;;;;;;;;;;;15.56;61.37;98838.28;2085474;28;20091;-67
2023/12/08 03:22:59;;;;;;;1.00;0.85;;;;;;;15.64;61.25;98838.22;2084927;28;19924;-66
2023/12/08 03:24:01;;;;;;;1.27;1.17;;;;;;;15.72;61.03;98840.84;2085280;28;20068;-66
2023/12/08 03:25:02;;;;;;;2.35;1.15;;;;;;;15.75;60.90;98835.13;2081202;28;20053;-66
2023/12/08 03:26:06;;;;;;;;;;;;;;;15.70;60.91;98842.88;2083960;28;20212;-67
2023/12/08 03:27:07;;;;;;;1.83;1.45;;;;;;;15.75;60.75;98837.00;2084784;28;19932;-67
2023/12/08 03:28:08;;;;;;;;;;;;;;;15.70;60.92;98840.19;2083829;28;20038;-66
2023/12/08 03:29:09;;;;;;;;;;;;;;;15.65;61.02;98837.19;2082682;28;20011;-66
2023/12/08 03:30:13;;;;;;;1.23;0.80;;;;;;;15.72;60.98;98838.19;2083220;28;19921;-67
2023/12/08 03:31:22;;;;;;;2.03;1.17;;;;;;;15.77;60.66;98835.78;2084230;28;20064;-66
2023/12/08 03:32:24;;;;;;;2.35;1.30;;;;;;;15.80;60.75;98832.75;2081321;28;20092;-67
2023/12/08 03:33:25;;;;;;;1.42;0.77;;;;;;;15.84;60.58;98827.88;2082201;28;20110;-67
2023/12/08 03:34:26;;;;;;;;;;;;;;;15.77;60.75;98835.78;2084982;28;20057;-67
2023/12/08 03:35:27;;;;;;;;;;;;;;;15.70;60.96;98832.16;2084449;28;19929;-66
2023/12/08 03:36:29;;;;;;;1.60;1.20;;;;;;;15.75;60.92;98837.81;2084893;28;20397;-67
2023/12/08 03:37:30;;;;;;;0.80;0.73;;;;;;;15.80;60.71;98829.25;2081315;28;20084;-65
2023/12/08 03:38:31;;;;;;;;;;;;;;;15.74;60.85;98828.13;2081594;28;20052;-66
2023/12/08 03:39:32;;;;;;;0.57;0.50;;;;;;;15.78;60.88;98832.09;2083683;28;19924;-66
2023/12/08 03:40:34;;;;;;;;;;;;;;;15.75;60.87;98835.13;2084409;28;20053;-66
2023/12/08 03:41:36;;;;;;;;;;;;;;;15.70;61.00;98834.00;2085377;28;19924;-66
2023/12/08 03:42:38;;;;;;;1.35;0.80;;;;;;;15.76;61.00;98834.13;2078529;28;19932;-67
2023/12/08 03:43:39;;;;;;;1.15;0.93;;;;;;;15.80;60.76;98829.25;2084918;28;20503;-66
2023/12/08 03:44:41;;;;;;;1.70;0.80;;;;;;;15.84;60.63;98836.72;2083120;28;20431;-66
2023/12/08 03:45:42;;;;;;;1.10;1.00;;;;;;;15.86;60.57;98829.34;2083707;28;20471;-66
2023/12/08 03:46:44;;;;;;;;;;;;;;;15.78;60.85;98832.09;2081735;28;20045;-67
2023/12/08 03:47:45;;;;;;;;;;;;;;;15.73;60.90;98836.31;2084275;28;20563;-66
2023/12/08 03:48:47;;;;;;;0.95;0.90;;;;;;;15.77;60.78;98825.09;2084608;28;19974;-67
2023/12/08 03:49:48;;;;;;;1.20;0.90;;;;;;;15.80;60.78;98826.59;2080785;28;20515;-66
2023/12/08 03:50:50;;;;;;;;;;;;;;;15.74;60.92;98825.47;2082809;28;20122;-65
2023/12/08 03:51:50;;;;;;;;;;;;;;;15.69;61.09;98821.66;2085770;28;19969;-67
2023/12/08 03:52:54;;;;;;;0.60;0.60;;;;;;;15.73;61.02;98818.44;2084189;28;19974;-66
2023/12/08 03:53:55;;;;;;;1.27;1.17;;;;;;;15.78;60.66;98813.38;2081917;28;20041;-65
2023/12/08 03:54:57;;;;;;;;;;;;;;;15.73;60.92;98820.28;2083326;28;20129;-67
2023/12/08 03:55:58;;;;;;;0.70;0.70;;;;;;;15.76;60.85;98815.41;2084288;28;19921;-67
2023/12/08 03:57:01;;;;;;;;;;;;;;;15.72;60.86;98811.44;2081507;28;20057;-67
2023/12/08 03:58:02;;;;;;;1.38;0.82;;;;;;;15.77;60.71;98814.41;2082178;28;19929;-66
2023/12/08 03:59:04;;;;;;;1.88;1.27;;;;;;;15.79;60.67;98807.00;2083930;28;20094;-66
2023/12/08 04:00:07;;;;;;;1.17;1.08;;;;;;;15.82;60.48;98806.69;2083167;28;20114;-66
2023/12/08 04:01:09;;;;;;;1.15;0.80;;;;;;;15.84;60.50;98809.97;2081176;28;20057;-67
2023/12/08 04:02:10;;;;;;;2.13;1.40;;;;;;;15.84;60.53;98803.81;2084095;28;20071;-67
2023/12/08 04:03:11;;;;;;;;;;;;;;;15.77;60.68;98800.22;2084446;28;20068;-67
2023/12/08 04:04:12;;;;;;;;;;;;;;;15.69;60.87;98803.78;2084711;28;19928;-67
2023/12/08 04:05:14;;;;;;;1.15;0.95;;;;;;;15.75;60.84;98804.91;2081764;28;20480;-67
2023/12/08 04:06:15;;;;;;;1.20;1.10;;;;;;;15.80;60.57;98802.50;2083445;28;20824;-67
2023/12/08 04:07:17;;;;;;;;;;;;;;;15.73;60.84;98797.03;2082570;28;20049;-67
2023/12/08 04:08:18;;;;;;;;;;;;;;;15.69;60.97;98798.44;2083773;28;20353;-67
2023/12/08 04:09:19;;;;;;;1.63;1.27;;;;;;;15.77;60.69;98802.88;2085660;28;19920;-67
2023/12/08 04:10:20;;;;;;;1.88;1.23;;;;;;;15.83;60.59;98792.28;2084128;28;20755;-67
2023/12/08 04:11:22;;;;;;;;;;;;;;;15.80;60.53;98792.66;2082354;28;20911;-66
2023/12/08 04:12:24;;;;;;;;;;;;;;;15.79;60.55;98790.97;2084177;28;20375;-67
2023/12/08 04:13:25;;;;;;;1.98;0.90;;;;;;;15.88;60.48;98793.56;2082498;28;19920;-67
2023/12/08 04:14:27;;;;;;;;;;;;;;;15.89;60.48;98785.38;2084589;28;20048;-65
2023/12/08 04:15:27;;;;;;;;;;;;;;;15.87;60.63;98784.72;2087180;28;19920;-68
2023/12/08 04:16:28;;;;;;;2.00;1.00;;;;;;;15.97;60.49;98782.63;2082739;28;20368;-68
2023/12/08 04:17:30;;;;;;;;;;;;;;;15.95;60.52;98779.28;2085075;28;20049;-67
2023/12/08 04:18:30;;;;;;;;;;;;;;;15.95;60.65;98781.97;2085414;28;19921;-68
2023/12/08 04:19:32;;;;;;;0.73;0.73;;;;;;;16.04;60.38;98783.53;2085377;28;19928;-67
2023/12/08 04:20:33;;;;;;;1.10;1.00;;;;;;;16.14;60.24;98780.59;2083813;28;20048;-68
2023/12/08 04:21:35;;;;;;;;;;;;;;;16.13;60.15;98781.63;2086617;28;20053;-66
2023/12/08 04:22:36;;;;;;;1.10;0.93;;;;;;;16.21;60.18;98772.66;2081764;28;20344;-67
2023/12/08 04:23:37;;;;;;;;;;;;;;;16.20;60.34;98771.81;2085008;28;20110;-67
2023/12/08 04:24:39;;;;;;;2.90;1.40;;;;;;;16.26;60.06;98776.44;2080807;28;20043;-67
2023/12/08 04:25:40;;;;;;;1.38;1.10;;;;;;;16.34;59.99;98769.34;2081331;28;20591;-67
2023/12/08 04:26:43;;;;;;;;;;;;;;;16.32;60.07;98769.50;2083854;28;20045;-67
2023/12/08 04:27:46;;;;;;;1.55;0.98;;;;;;;16.38;60.00;98765.25;2082566;28;19978;-68
2023/12/08 04:28:48;;;;;;;0.88;0.88;;;;;;;16.43;59.88;98768.22;2082739;28;20045;-67
2023/12/08 04:29:49;;;;;;;1.10;1.00;;;;;;;16.49;59.82;98775.50;2082639;28;20057;-66
2023/12/08 04:30:50;;;;;;;;;;;;;;;16.44;59.94;98767.22;2085212;28;20064;-67
2023/12/08 04:31:51;;;;;;;3.10;1.25;;;;;;;16.50;59.86;98767.28;2084008;28;19929;-67
2023/12/08 04:32:53;;;;;;;;;;;;;;;16.48;60.03;98773.84;2077096;28;20053;-67
2023/12/08 04:33:53;;;;;;;;;;;;;;;16.46;60.12;98770.50;2084119;28;20001;-65
2023/12/08 04:34:55;;;;;;;1.13;1.00;;;;;;;16.54;60.10;98770.41;2084228;28;19925;-67
2023/12/08 04:35:56;;;;;;;1.50;0.80;;;;;;;16.60;59.81;98771.50;2083964;28;20095;-67
2023/12/08 04:36:58;;;;;;;;;;;;;;;16.58;59.89;98770.91;2085013;28;20041;-67
2023/12/08 04:37:59;;;;;;;1.38;1.17;;;;;;;16.62;59.92;98759.59;2083820;28;19924;-67
2023/12/08 04:39:01;;;;;;;;;;;;;;;16.60;59.97;98766.16;2084972;28;20508;-67
2023/12/08 04:40:02;;;;;;;2.15;1.00;;;;;;;16.67;59.95;98767.09;2083570;28;19933;-67
2023/12/08 04:41:05;;;;;;;1.13;1.00;;;;;;;16.71;59.67;98765.69;2079804;28;20072;-66
2023/12/08 04:42:06;;;;;;;1.80;1.30;;;;;;;16.74;59.69;98767.97;2083611;28;20106;-67
2023/12/08 04:43:10;;;;;;;1.40;1.00;;;;;;;16.79;59.60;98764.78;2082403;28;20079;-67
2023/12/08 04:44:11;;;;;;;2.35;1.25;;;;;;;16.81;59.69;98757.38;2082500;28;20634;-67
2023/12/08 04:45:14;;;;;;;;;;;;;;;16.79;59.87;98754.88;2085368;28;20112;-67
2023/12/08 04:46:15;;;;;;;0.93;0.80;;;;;;;16.81;59.65;98757.38;2083452;28;19924;-67
2023/12/08 04:47:16;;;;;;;;;;;;;;;16.78;59.71;98758.59;2083839;28;20118;-67
2023/12/08 04:48:17;;;;;;;1.85;1.15;;;;;;;16.84;59.77;98757.84;2084411;28;19981;-66
2023/12/08 04:49:19;;;;;;;;;;;;;;;16.81;59.93;98755.53;2083416;28;20466;-67
2023/12/08 04:50:20;;;;;;;1.17;0.90;;;;;;;16.87;59.65;98759.31;2083412;28;19990;-68
2023/12/08 04:51:22;;;;;;;;;;;;;;;16.86;59.87;98754.97;2082627;28;20048;-67
2023/12/08 04:52:23;;;;;;;1.25;0.88;;;;;;;16.90;59.67;98751.72;2082087;28;19977;-67
2023/12/08 04:53:24;;;;;;;;;;;;;;;16.89;59.82;98752.75;2083373;28;20102;-66
2023/12/08 04:54:25;;;;;;;1.02;0.85;;;;;;;16.95;59.61;98753.84;2081613;28;20856;-67
2023/12/08 04:55:26;;;;;;;;;;;;;;;16.93;59.80;98754.00;2084337;28;20052;-65
2023/12/08 04:56:28;;;;;;;0.97;0.97;;;;;;;16.97;59.81;98749.94;2082932;28;20015;-67
2023/12/08 04:57:29;;;;;;;0.95;0.70;;;;;;;17.02;59.71;98749.38;2083330;28;21070;-67
2023/12/08 04:58:32;;;;;;;;;;;;;;;17.00;59.73;98743.38;2082219;28;20057;-67
2023/12/08 04:59:33;;;;;;;0.75;0.75;;;;;;;17.06;59.47;98753.31;2083212;28;19921;-67
2023/12/08 05:00:33;;;;;;;;;;;;;;;17.04;59.74;98751.84;2085466;28;20118;-66
2023/12/08 05:01:35;;;;;;;0.60;0.60;;;;;;;17.07;59.66;98754.97;2081796;28;20019;-67